Terminal Aerodrome Forecast
Issued by NWS

Home | Current Version | Previous Version | Text Only | Print | Product List | Glossary On
Versions: 1 2 3 4 5 6 7 8 9 10 11 12 13 14 15 16 17
000
FTUS43 KDLH 232300
TAFHIB
TAF
KHIB 232334Z 2400/2424 36007KT 5SM -SN BR SCT007 BKN012 OVC040
      TEMPO 2400/2403 2SM -DZSN BR BKN007 OVC012
     FM240400 35007KT 5SM -SNDZ OVC008
     FM240800 34006KT 6SM BR OVC006
     FM241800 34007KT P6SM OVC010=

USA.gov is the U.S. government's official web portal to all federal, state and local government web resources and services.